Time;durP1;ratioP1;P1;durP2;ratioP2;P2;SDS_P1;SDS_P2;PMS_P1;PMS_P2;Temp;Humidity;BMP_temperature;BMP_pressure;BME280_temperature;BME280_humidity;BME280_pressure;Samples;Min_cycle;Max_cycle;Signal;HPM_P1;HPM_P2
2024/01/07 00:00:41;;;;;;;44.33;27.00;;;5.30;99.90;;;;;;5120969;27;20466;-71
2024/01/07 00:03:07;;;;;;;46.67;27.10;;;5.30;99.90;;;;;;5138623;27;20467;-70
2024/01/07 00:05:36;;;;;;;46.30;27.53;;;5.30;99.90;;;;;;5138547;27;20962;-71
2024/01/07 00:08:05;;;;;;;51.00;28.50;;;5.30;99.90;;;;;;5138610;27;20438;-71
2024/01/07 00:10:32;;;;;;;56.20;29.67;;;5.40;99.90;;;;;;5138254;27;20462;-70
2024/01/07 00:12:59;;;;;;;50.93;27.97;;;5.40;99.90;;;;;;5138236;27;20450;-70
2024/01/07 00:15:26;;;;;;;50.20;28.13;;;5.40;99.90;;;;;;5137664;27;20535;-70
2024/01/07 00:17:53;;;;;;;53.30;28.93;;;5.30;99.90;;;;;;5137223;27;20442;-71
2024/01/07 00:20:20;;;;;;;51.70;28.17;;;5.30;99.90;;;;;;5137710;27;20462;-71
2024/01/07 00:22:48;;;;;;;49.43;27.83;;;5.30;99.90;;;;;;5137622;27;20449;-70
2024/01/07 00:25:18;;;;;;;57.60;29.27;;;5.40;99.90;;;;;;5136924;27;20869;-70
2024/01/07 00:27:45;;;;;;;48.20;26.93;;;5.40;99.90;;;;;;5137630;27;20442;-70
2024/01/07 00:30:13;;;;;;;47.50;26.23;;;5.40;99.90;;;;;;5137984;27;20955;-70
2024/01/07 00:32:40;;;;;;;44.83;26.47;;;5.40;99.90;;;;;;5136951;27;20446;-70
2024/01/07 00:35:07;;;;;;;44.90;26.40;;;5.40;99.90;;;;;;5136747;27;20473;-70
2024/01/07 00:37:34;;;;;;;45.57;25.83;;;5.40;99.90;;;;;;5137094;27;20442;-70
2024/01/07 00:40:01;;;;;;;40.47;25.00;;;5.40;99.90;;;;;;5136557;27;20548;-70
2024/01/07 00:42:30;;;;;;;43.10;23.67;;;5.40;99.90;;;;;;5117615;28;20457;-70
2024/01/07 00:44:57;;;;;;;40.00;21.90;;;5.40;99.90;;;;;;5136441;28;20437;-70
2024/01/07 00:47:23;;;;;;;40.20;22.53;;;5.40;99.90;;;;;;5136047;28;20446;-71
2024/01/07 00:49:50;;;;;;;41.57;22.83;;;5.50;99.90;;;;;;5117813;28;20970;-70
2024/01/07 00:52:17;;;;;;;38.30;23.20;;;5.50;99.90;;;;;;5136163;28;20809;-70
2024/01/07 00:54:44;;;;;;;34.93;22.80;;;5.50;99.90;;;;;;5136241;28;20473;-71
2024/01/07 00:57:12;;;;;;;40.07;23.90;;;5.50;99.90;;;;;;5135317;28;20445;-71
2024/01/07 00:59:40;;;;;;;39.50;23.10;;;5.50;99.90;;;;;;5135211;28;20497;-70
2024/01/07 01:02:07;;;;;;;36.83;22.77;;;5.50;99.90;;;;;;5134953;28;20453;-71
2024/01/07 01:04:34;;;;;;;47.67;25.37;;;5.50;99.90;;;;;;5136312;28;20453;-70
2024/01/07 01:07:00;;;;;;;38.70;22.90;;;5.50;99.90;;;;;;5135904;28;20438;-70
2024/01/07 01:09:29;;;;;;;34.90;22.10;;;5.50;99.90;;;;;;5136139;28;20843;-71
2024/01/07 01:11:55;;;;;;;37.70;22.30;;;5.50;99.90;;;;;;5135717;28;20446;-71
2024/01/07 01:14:23;;;;;;;36.97;20.57;;;5.40;99.90;;;;;;5135806;28;20481;-70
2024/01/07 01:16:52;;;;;;;33.97;20.60;;;5.40;99.90;;;;;;5136031;28;20445;-71
2024/01/07 01:19:19;;;;;;;34.37;20.53;;;5.40;99.90;;;;;;5117114;28;20489;-70
2024/01/07 01:21:46;;;;;;;32.80;20.27;;;5.40;99.90;;;;;;5135947;28;20449;-71
2024/01/07 01:24:12;;;;;;;32.37;19.93;;;5.50;99.90;;;;;;5135463;28;20438;-71
2024/01/07 01:26:39;;;;;;;34.77;21.70;;;5.50;99.90;;;;;;5135796;27;20946;-71
2024/01/07 01:29:07;;;;;;;37.10;21.00;;;5.40;99.90;;;;;;5140414;27;20494;-70
2024/01/07 01:31:34;;;;;;;34.23;19.80;;;5.40;99.90;;;;;;5139662;27;20446;-70
2024/01/07 01:34:02;;;;;;;34.07;21.47;;;5.40;99.90;;;;;;5140036;27;20473;-70
2024/01/07 01:36:31;;;;;;;33.37;20.00;;;5.40;99.90;;;;;;5139422;27;20855;-70
2024/01/07 01:38:58;;;;;;;37.27;21.80;;;5.40;99.90;;;;;;5140355;27;20449;-70
2024/01/07 01:41:25;;;;;;;32.47;21.90;;;5.40;99.90;;;;;;5142730;27;20437;-71
2024/01/07 01:43:52;;;;;;;31.50;20.40;;;5.50;99.90;;;;;;5141476;27;20442;-71
2024/01/07 01:46:19;;;;;;;37.23;21.63;;;5.50;99.90;;;;;;5140628;27;20457;-71
2024/01/07 01:48:46;;;;;;;35.93;21.10;;;5.50;99.90;;;;;;5145215;27;20453;-70
2024/01/07 01:51:14;;;;;;;31.47;19.93;;;5.50;99.90;;;;;;5149270;27;20466;-71
2024/01/07 01:53:41;;;;;;;32.83;20.80;;;5.50;99.90;;;;;;5145492;27;20442;-70
2024/01/07 01:56:08;;;;;;;44.17;21.53;;;5.50;99.90;;;;;;5141876;27;21009;-71
2024/01/07 01:58:35;;;;;;;32.13;19.90;;;5.50;99.90;;;;;;5142012;27;20422;-70
2024/01/07 02:01:02;;;;;;;33.23;20.73;;;5.50;99.90;;;;;;5140633;27;20511;-70
2024/01/07 02:03:29;;;;;;;39.27;21.80;;;5.60;99.90;;;;;;5139769;27;20454;-70
2024/01/07 02:05:57;;;;;;;35.93;21.13;;;5.60;99.90;;;;;;5139984;27;20441;-70
2024/01/07 02:08:26;;;;;;;36.87;22.13;;;5.50;99.90;;;;;;5139779;27;20448;-70
2024/01/07 02:10:53;;;;;;;39.43;22.50;;;5.60;99.90;;;;;;5139544;27;20469;-70
2024/01/07 02:13:20;;;;;;;34.60;21.10;;;5.50;99.90;;;;;;5139719;27;20442;-70
2024/01/07 02:15:46;;;;;;;34.27;20.73;;;5.50;99.90;;;;;;5138802;27;20554;-70
2024/01/07 02:18:14;;;;;;;35.43;21.90;;;5.50;99.90;;;;;;5139317;27;20441;-70
2024/01/07 02:20:40;;;;;;;40.53;24.47;;;5.50;99.90;;;;;;5121042;27;20533;-69
2024/01/07 02:23:07;;;;;;;35.47;21.70;;;5.60;99.90;;;;;;5120590;27;20502;-70
2024/01/07 02:25:39;;;;;;;36.40;23.10;;;5.60;99.90;;;;;;5138479;27;20437;-70
2024/01/07 02:28:06;;;;;;;33.40;22.57;;;5.50;99.90;;;;;;5138354;27;20442;-70
2024/01/07 02:30:32;;;;;;;33.70;21.23;;;5.60;99.90;;;;;;5138129;27;20458;-70
2024/01/07 02:33:03;;;;;;;35.70;23.40;;;5.50;99.90;;;;;;5138480;27;20445;-70
2024/01/07 02:35:31;;;;;;;32.07;20.83;;;5.50;99.90;;;;;;5120633;27;20466;-70
2024/01/07 02:37:58;;;;;;;34.63;23.17;;;5.60;99.90;;;;;;5138401;27;20446;-70
2024/01/07 02:40:25;;;;;;;34.77;22.27;;;5.60;99.90;;;;;;5138547;27;20468;-70
2024/01/07 02:42:53;;;;;;;33.80;22.07;;;5.60;99.90;;;;;;5138194;27;20456;-70
2024/01/07 02:45:20;;;;;;;33.47;22.93;;;5.60;99.90;;;;;;5138444;27;20438;-70
2024/01/07 02:47:46;;;;;;;32.70;23.00;;;5.60;99.90;;;;;;5120168;27;20456;-70
2024/01/07 02:50:13;;;;;;;30.07;20.30;;;5.60;99.90;;;;;;5119835;27;20462;-70
2024/01/07 02:52:40;;;;;;;29.83;20.47;;;5.60;99.90;;;;;;5138140;27;20449;-70
2024/01/07 02:55:08;;;;;;;26.20;17.97;;;5.60;99.90;;;;;;5137702;27;21029;-70
2024/01/07 02:57:35;;;;;;;24.70;18.03;;;5.60;99.90;;;;;;5139473;27;20453;-70
2024/01/07 03:00:06;;;;;;;25.50;17.13;;;5.60;99.90;;;;;;5143792;27;20466;-71
2024/01/07 03:02:31;;;;;;;21.53;15.43;;;5.60;99.90;;;;;;5148697;27;20540;-70
2024/01/07 03:04:58;;;;;;;18.27;14.60;;;5.60;99.90;;;;;;5148199;27;20437;-70
2024/01/07 03:07:25;;;;;;;20.87;14.63;;;5.60;99.90;;;;;;5147201;27;20207;-70
2024/01/07 03:09:51;;;;;;;22.23;15.00;;;5.60;99.90;;;;;;5146375;27;20535;-70
2024/01/07 03:12:18;;;;;;;19.90;14.33;;;5.60;99.90;;;;;;5144570;27;20442;-71
2024/01/07 03:14:45;;;;;;;19.13;13.87;;;5.60;99.90;;;;;;5144949;27;20486;-71
2024/01/07 03:17:14;;;;;;;21.70;15.87;;;5.50;99.90;;;;;;5143047;27;20449;-71
2024/01/07 03:19:41;;;;;;;23.10;19.30;;;5.50;99.90;;;;;;5142519;27;20552;-70
2024/01/07 03:22:08;;;;;;;18.97;15.50;;;5.60;99.90;;;;;;5142190;27;20438;-70
2024/01/07 03:24:35;;;;;;;19.30;16.10;;;5.60;99.90;;;;;;5142170;27;20438;-70
2024/01/07 03:27:02;;;;;;;20.93;14.93;;;5.50;99.90;;;;;;5123509;27;20473;-70
2024/01/07 03:29:29;;;;;;;21.33;17.73;;;5.60;99.90;;;;;;5105725;27;21002;-70
2024/01/07 03:31:56;;;;;;;21.83;17.07;;;5.60;99.90;;;;;;5140479;27;20446;-70
2024/01/07 03:34:24;;;;;;;27.23;18.73;;;5.50;99.90;;;;;;5141323;27;20442;-71
2024/01/07 03:36:51;;;;;;;24.73;18.27;;;5.50;99.90;;;;;;5140442;27;20474;-70
2024/01/07 03:39:18;;;;;;;25.60;17.87;;;5.50;99.90;;;;;;5140528;27;20458;-70
2024/01/07 03:41:44;;;;;;;25.30;17.77;;;5.50;99.90;;;;;;5104510;27;20474;-70
2024/01/07 03:44:11;;;;;;;22.50;17.10;;;5.50;99.90;;;;;;5139623;27;20442;-70
2024/01/07 03:46:38;;;;;;;25.53;17.73;;;5.50;99.90;;;;;;5139368;27;20446;-70
2024/01/07 03:49:06;;;;;;;20.80;16.40;;;5.50;99.90;;;;;;5139820;27;20442;-70
2024/01/07 03:51:34;;;;;;;23.40;17.50;;;5.50;99.90;;;;;;5137961;27;20438;-71
2024/01/07 03:54:01;;;;;;;25.60;15.97;;;5.50;99.90;;;;;;5138396;27;20446;-70
2024/01/07 03:56:29;;;;;;;26.10;16.40;;;5.50;99.90;;;;;;5138443;27;20501;-70
2024/01/07 03:58:56;;;;;;;19.73;15.27;;;5.40;99.90;;;;;;5137591;27;20923;-70
2024/01/07 04:01:23;;;;;;;21.13;16.03;;;5.40;99.90;;;;;;5137499;27;20449;-70
2024/01/07 04:03:49;;;;;;;23.73;16.60;;;5.40;99.90;;;;;;5129723;27;20441;-70
2024/01/07 04:06:16;;;;;;;20.70;16.67;;;5.30;99.90;;;;;;5145667;27;20441;-71
2024/01/07 04:08:45;;;;;;;26.20;17.63;;;5.30;99.90;;;;;;5142886;27;20450;-70
2024/01/07 04:11:11;;;;;;;31.63;16.87;;;5.30;99.90;;;;;;5140146;27;20473;-70
2024/01/07 04:13:38;;;;;;;24.53;17.10;;;5.40;99.90;;;;;;5139074;27;20446;-70
2024/01/07 04:16:05;;;;;;;24.73;16.40;;;5.40;99.90;;;;;;5138467;27;20478;-70
2024/01/07 04:18:32;;;;;;;24.30;17.23;;;5.40;99.90;;;;;;5122462;27;20470;-70
2024/01/07 04:20:58;;;;;;;23.17;16.53;;;5.40;99.90;;;;;;5139300;27;20465;-70
2024/01/07 04:23:25;;;;;;;23.63;16.97;;;5.40;99.90;;;;;;5138821;27;20446;-70
2024/01/07 04:25:53;;;;;;;22.73;16.23;;;5.30;99.90;;;;;;5138560;27;20442;-70
2024/01/07 04:28:20;;;;;;;22.87;15.50;;;5.30;99.90;;;;;;5138189;27;20445;-70
2024/01/07 04:30:48;;;;;;;22.90;16.60;;;5.30;99.90;;;;;;5137247;27;20458;-70
2024/01/07 04:33:15;;;;;;;25.80;16.73;;;5.30;99.90;;;;;;5137422;27;20446;-70
2024/01/07 04:35:42;;;;;;;22.87;16.07;;;5.20;99.90;;;;;;5138016;27;20477;-70
2024/01/07 04:38:09;;;;;;;25.37;17.63;;;5.20;99.90;;;;;;5137118;27;20446;-70
2024/01/07 04:40:36;;;;;;;24.70;17.60;;;5.20;99.90;;;;;;5137606;28;20966;-70
2024/01/07 04:43:04;;;;;;;25.60;17.80;;;5.20;99.90;;;;;;5137683;28;20441;-70
2024/01/07 04:45:31;;;;;;;26.10;18.03;;;5.20;99.90;;;;;;5136673;28;20442;-70
2024/01/07 04:47:58;;;;;;;24.20;17.40;;;5.20;99.90;;;;;;5136497;28;20534;-70
2024/01/07 04:50:24;;;;;;;22.57;17.70;;;5.20;99.90;;;;;;5136415;28;20498;-69
2024/01/07 04:52:51;;;;;;;25.90;17.43;;;5.20;99.90;;;;;;5136161;28;20506;-69
2024/01/07 04:55:18;;;;;;;23.87;17.30;;;5.20;99.90;;;;;;5136262;28;20484;-70
2024/01/07 04:57:45;;;;;;;22.33;16.90;;;5.20;99.90;;;;;;5135906;28;20457;-70
2024/01/07 05:00:14;;;;;;;19.60;15.57;;;5.20;99.90;;;;;;5118336;28;20454;-70
2024/01/07 05:02:41;;;;;;;19.33;15.10;;;5.20;99.90;;;;;;5138127;27;20453;-70
2024/01/07 05:05:09;;;;;;;20.20;15.00;;;5.20;99.90;;;;;;5139973;27;20449;-70
2024/01/07 05:07:36;;;;;;;20.57;14.00;;;5.20;99.90;;;;;;5122257;27;20950;-70
2024/01/07 05:10:03;;;;;;;20.90;14.97;;;5.20;99.90;;;;;;5121730;27;20458;-70
2024/01/07 05:12:29;;;;;;;20.73;14.07;;;5.20;99.90;;;;;;5139948;27;20586;-70
2024/01/07 05:14:58;;;;;;;20.43;15.70;;;5.20;99.90;;;;;;5139874;27;20445;-70
2024/01/07 05:17:27;;;;;;;19.00;15.17;;;5.20;99.90;;;;;;5139645;27;20477;-70
2024/01/07 05:19:54;;;;;;;21.73;16.13;;;5.20;99.90;;;;;;5139711;27;20453;-70
2024/01/07 05:22:21;;;;;;;19.20;15.73;;;5.20;99.90;;;;;;5139463;27;20446;-70
2024/01/07 05:24:48;;;;;;;19.93;15.00;;;5.20;99.90;;;;;;5139645;27;20442;-70
2024/01/07 05:27:15;;;;;;;23.50;17.60;;;5.20;99.90;;;;;;5140730;27;20441;-70
2024/01/07 05:29:46;;;;;;;19.00;14.70;;;5.20;99.90;;;;;;5139921;27;20466;-69
2024/01/07 05:32:13;;;;;;;20.63;16.23;;;5.20;99.90;;;;;;5121862;27;20459;-70
2024/01/07 05:34:42;;;;;;;20.13;15.37;;;5.10;99.90;;;;;;5139824;27;20803;-70
2024/01/07 05:37:09;;;;;;;23.10;17.30;;;5.20;99.90;;;;;;5139407;27;20486;-69
2024/01/07 05:39:35;;;;;;;24.33;18.10;;;5.20;99.90;;;;;;5139534;27;20488;-69
2024/01/07 05:42:02;;;;;;;22.50;16.17;;;5.20;99.90;;;;;;5139410;27;20461;-70
2024/01/07 05:44:29;;;;;;;22.03;15.63;;;5.20;99.90;;;;;;5139131;27;20453;-70
2024/01/07 05:46:56;;;;;;;23.97;17.40;;;5.20;99.90;;;;;;5139782;27;20434;-70
2024/01/07 05:49:22;;;;;;;22.17;16.53;;;5.10;99.90;;;;;;5139630;27;20458;-70
2024/01/07 05:51:54;;;;;;;19.60;15.50;;;5.20;99.90;;;;;;5139624;27;20468;-70
2024/01/07 05:54:22;;;;;;;18.43;15.20;;;5.20;99.90;;;;;;5140648;27;20441;-70
2024/01/07 05:56:49;;;;;;;19.73;14.77;;;5.20;99.90;;;;;;5139919;27;20493;-71
2024/01/07 05:59:16;;;;;;;19.07;14.93;;;5.20;99.90;;;;;;5139832;27;20859;-70
2024/01/07 06:01:43;;;;;;;24.57;18.90;;;5.10;99.90;;;;;;5139124;27;20472;-70
2024/01/07 06:04:10;;;;;;;21.70;15.83;;;5.10;99.90;;;;;;5139445;27;20512;-70
2024/01/07 06:06:36;;;;;;;22.73;15.57;;;5.00;99.90;;;;;;5139492;27;20434;-70
2024/01/07 06:09:05;;;;;;;23.20;17.87;;;5.00;99.90;;;;;;5104060;27;20481;-70
2024/01/07 06:11:31;;;;;;;21.47;16.37;;;5.00;99.90;;;;;;5139137;27;20481;-70
2024/01/07 06:13:58;;;;;;;20.27;16.13;;;5.00;99.90;;;;;;5139108;27;20932;-71
2024/01/07 06:16:25;;;;;;;18.67;15.60;;;5.00;99.90;;;;;;5139067;27;20480;-71
2024/01/07 06:18:52;;;;;;;18.57;15.00;;;5.00;99.90;;;;;;5150458;27;20473;-71
2024/01/07 06:21:19;;;;;;;17.77;15.00;;;5.00;99.90;;;;;;5146762;27;21001;-71
2024/01/07 06:23:45;;;;;;;20.50;15.27;;;5.00;99.90;;;;;;5145125;27;20996;-71
2024/01/07 06:26:16;;;;;;;19.40;15.90;;;5.00;99.90;;;;;;5145451;27;20449;-71
2024/01/07 06:28:42;;;;;;;22.83;16.23;;;5.00;99.90;;;;;;5143885;27;20430;-71
2024/01/07 06:31:09;;;;;;;19.80;15.40;;;5.00;99.90;;;;;;5121624;27;20866;-71
2024/01/07 06:33:36;;;;;;;19.20;14.67;;;5.00;99.90;;;;;;5140589;27;20442;-71
2024/01/07 06:36:04;;;;;;;16.87;13.80;;;5.00;99.90;;;;;;5139453;27;21052;-71
2024/01/07 06:38:30;;;;;;;16.97;13.50;;;5.00;99.90;;;;;;5139890;27;20454;-71
2024/01/07 06:41:00;;;;;;;16.83;13.13;;;5.00;99.90;;;;;;5139781;27;20462;-71
2024/01/07 06:43:29;;;;;;;19.00;14.23;;;5.00;99.90;;;;;;5121245;27;20457;-71
2024/01/07 06:45:55;;;;;;;16.50;13.90;;;5.00;99.90;;;;;;5139490;27;20803;-71
2024/01/07 06:48:22;;;;;;;18.53;14.20;;;4.90;99.90;;;;;;5138949;27;20438;-71
2024/01/07 06:50:50;;;;;;;17.60;13.13;;;4.90;99.90;;;;;;5138439;27;20470;-70
2024/01/07 06:53:17;;;;;;;17.67;13.20;;;4.90;99.90;;;;;;5121478;27;20462;-71
2024/01/07 06:55:44;;;;;;;19.20;14.20;;;4.90;99.90;;;;;;5127696;27;20475;-71
2024/01/07 06:58:11;;;;;;;19.03;15.20;;;4.80;99.90;;;;;;5144184;27;20458;-71
2024/01/07 07:00:39;;;;;;;19.70;14.80;;;4.80;99.90;;;;;;5143521;27;20474;-71
2024/01/07 07:03:06;;;;;;;19.73;14.00;;;4.90;99.90;;;;;;5143845;27;20442;-71
2024/01/07 07:05:33;;;;;;;21.73;14.73;;;4.90;99.90;;;;;;5142479;27;20452;-71
2024/01/07 07:08:00;;;;;;;17.73;13.80;;;4.90;99.90;;;;;;5141615;27;20448;-71
2024/01/07 07:10:27;;;;;;;19.87;14.37;;;4.80;99.90;;;;;;5141482;27;20462;-71
2024/01/07 07:12:54;;;;;;;22.40;15.60;;;4.70;99.90;;;;;;5141432;27;20445;-71
2024/01/07 07:15:21;;;;;;;19.30;15.10;;;4.70;99.90;;;;;;5141346;27;20445;-71
2024/01/07 07:17:49;;;;;;;19.03;14.40;;;4.70;99.90;;;;;;5140722;27;20473;-71
2024/01/07 07:20:16;;;;;;;20.77;14.63;;;4.70;99.90;;;;;;5140057;27;20465;-70
2024/01/07 07:22:43;;;;;;;18.43;14.30;;;4.70;99.90;;;;;;5140702;27;20438;-71
2024/01/07 07:25:09;;;;;;;20.43;14.57;;;4.70;99.90;;;;;;5138677;27;20827;-71
2024/01/07 07:27:37;;;;;;;20.80;14.10;;;4.70;99.90;;;;;;5139673;27;21018;-71
2024/01/07 07:30:05;;;;;;;18.90;13.73;;;4.70;99.90;;;;;;5120228;27;20477;-70
2024/01/07 07:32:35;;;;;;;19.50;14.80;;;4.70;99.90;;;;;;5139618;27;20961;-71
2024/01/07 07:35:04;;;;;;;23.03;15.73;;;4.60;99.90;;;;;;5139565;27;20434;-71
2024/01/07 07:37:30;;;;;;;20.27;15.40;;;4.60;99.90;;;;;;5139845;27;20486;-71
2024/01/07 07:39:57;;;;;;;21.83;15.50;;;4.60;99.90;;;;;;5139567;27;20466;-70
2024/01/07 07:42:24;;;;;;;23.87;16.20;;;4.60;99.90;;;;;;5138730;27;20954;-71
2024/01/07 07:44:51;;;;;;;24.40;16.60;;;4.60;99.90;;;;;;5139826;27;20438;-71
2024/01/07 07:47:17;;;;;;;21.53;14.90;;;4.60;99.90;;;;;;5139379;27;20935;-71
2024/01/07 07:49:44;;;;;;;22.07;14.90;;;4.60;99.90;;;;;;5139208;27;20462;-71
2024/01/07 07:52:14;;;;;;;22.20;15.30;;;4.60;99.90;;;;;;5138683;27;20801;-71
2024/01/07 07:54:41;;;;;;;19.57;15.47;;;4.60;99.90;;;;;;5138423;27;20499;-71
2024/01/07 07:57:09;;;;;;;21.60;16.60;;;4.60;99.90;;;;;;5138813;27;20484;-71
2024/01/07 07:59:36;;;;;;;20.60;15.00;;;4.60;99.90;;;;;;5138762;27;20491;-71
2024/01/07 08:02:03;;;;;;;20.77;15.37;;;4.60;99.90;;;;;;5139073;27;20442;-71
2024/01/07 08:04:30;;;;;;;21.13;17.17;;;4.60;99.90;;;;;;5138049;27;20442;-71
2024/01/07 08:06:57;;;;;;;23.03;16.73;;;4.70;99.90;;;;;;5138453;27;20463;-71
2024/01/07 08:09:26;;;;;;;19.20;15.10;;;4.60;99.90;;;;;;5138333;27;20462;-71
2024/01/07 08:11:55;;;;;;;20.97;16.90;;;4.70;99.90;;;;;;5139679;27;20812;-71
2024/01/07 08:14:21;;;;;;;22.03;16.40;;;4.60;99.90;;;;;;5138499;27;20949;-72
2024/01/07 08:16:48;;;;;;;20.80;15.80;;;4.70;99.90;;;;;;5138588;27;20485;-72
2024/01/07 08:19:16;;;;;;;20.80;16.17;;;4.70;99.90;;;;;;5137982;27;20449;-71
2024/01/07 08:21:43;;;;;;;27.03;18.83;;;4.70;99.90;;;;;;5137784;27;20445;-71
2024/01/07 08:24:11;;;;;;;33.60;21.00;;;4.70;99.90;;;;;;5138131;27;20453;-71
2024/01/07 08:26:39;;;;;;;20.20;16.30;;;4.70;99.90;;;;;;5119457;27;20931;-71
2024/01/07 08:29:06;;;;;;;23.00;17.33;;;4.70;99.90;;;;;;5137809;27;20442;-71
2024/01/07 08:31:34;;;;;;;22.10;16.00;;;4.60;99.90;;;;;;5137157;27;20502;-71
2024/01/07 08:34:00;;;;;;;23.23;16.17;;;4.60;99.90;;;;;;5147268;27;20438;-72
2024/01/07 08:36:27;;;;;;;21.50;16.33;;;4.50;99.90;;;;;;5148365;27;20499;-72
2024/01/07 08:38:54;;;;;;;23.00;16.50;;;4.50;99.90;;;;;;5145079;27;20438;-70
2024/01/07 08:41:21;;;;;;;19.43;14.80;;;4.50;99.90;;;;;;5140812;27;20462;-71
2024/01/07 08:43:49;;;;;;;20.13;15.10;;;4.40;99.90;;;;;;5140254;28;20450;-71
2024/01/07 08:46:16;;;;;;;23.70;16.07;;;4.50;99.90;;;;;;5138472;28;20453;-70
2024/01/07 08:48:43;;;;;;;21.67;16.40;;;4.40;99.90;;;;;;5137625;28;20446;-71
2024/01/07 08:51:09;;;;;;;23.07;16.07;;;4.40;99.90;;;;;;5137722;28;20461;-71
2024/01/07 08:53:37;;;;;;;20.97;15.77;;;4.40;99.90;;;;;;5137330;28;20446;-70
2024/01/07 08:56:04;;;;;;;23.57;14.83;;;4.50;99.90;;;;;;5136636;28;20441;-71
2024/01/07 08:58:31;;;;;;;26.60;19.00;;;4.40;99.90;;;;;;5136745;28;20461;-70
2024/01/07 09:00:59;;;;;;;20.60;15.70;;;4.40;99.90;;;;;;5118175;28;20501;-70
2024/01/07 09:03:26;;;;;;;20.60;15.23;;;4.40;99.90;;;;;;5136020;28;20446;-70
2024/01/07 09:05:53;;;;;;;22.90;17.10;;;4.30;99.90;;;;;;5135902;28;20442;-70
2024/01/07 09:08:20;;;;;;;21.23;15.90;;;4.30;99.90;;;;;;5135852;28;20946;-70
2024/01/07 09:10:47;;;;;;;22.70;16.30;;;4.40;99.90;;;;;;5136020;28;20469;-70
2024/01/07 09:13:14;;;;;;;22.07;15.37;;;4.30;99.90;;;;;;5136455;28;20455;-69
2024/01/07 09:15:41;;;;;;;20.40;14.40;;;4.30;99.90;;;;;;5135695;28;20958;-70
2024/01/07 09:18:09;;;;;;;20.03;13.40;;;4.30;99.90;;;;;;5136475;28;20489;-70
2024/01/07 09:20:36;;;;;;;17.33;13.67;;;4.30;99.90;;;;;;5135611;28;20531;-69
2024/01/07 09:23:05;;;;;;;18.20;13.93;;;4.30;99.90;;;;;;5135980;28;20453;-70
2024/01/07 09:25:33;;;;;;;21.97;14.40;;;4.30;99.90;;;;;;5136139;28;20444;-69
2024/01/07 09:28:00;;;;;;;19.10;13.97;;;4.40;99.90;;;;;;5135945;28;20887;-70
2024/01/07 09:30:27;;;;;;;20.53;14.27;;;4.30;99.90;;;;;;5135801;28;20466;-69
2024/01/07 09:32:54;;;;;;;16.40;13.57;;;4.30;99.90;;;;;;5138477;28;20450;-71
2024/01/07 09:35:25;;;;;;;20.77;14.03;;;4.30;99.90;;;;;;5136505;28;20434;-69
2024/01/07 09:37:52;;;;;;;20.20;14.03;;;4.30;99.90;;;;;;5136064;28;20534;-69
2024/01/07 09:40:19;;;;;;;20.17;15.30;;;4.30;99.90;;;;;;5136889;28;20462;-70
2024/01/07 09:42:46;;;;;;;15.50;12.37;;;4.40;99.90;;;;;;5138874;28;20525;-68
2024/01/07 09:45:14;;;;;;;15.30;13.07;;;4.40;99.90;;;;;;5136193;28;20820;-69
2024/01/07 09:47:43;;;;;;;17.27;13.80;;;4.30;99.90;;;;;;5117699;28;20442;-68
2024/01/07 09:50:11;;;;;;;18.27;13.07;;;4.30;99.90;;;;;;5122012;27;20466;-67
2024/01/07 09:52:43;;;;;;;16.40;12.40;;;4.30;99.90;;;;;;5139506;27;20434;-68
2024/01/07 09:55:13;;;;;;;16.80;13.03;;;4.30;99.90;;;;;;5139153;27;20457;-68
2024/01/07 09:57:46;;;;;;;16.20;13.33;;;4.30;99.90;;;;;;5121672;27;20907;-68
2024/01/07 10:00:14;;;;;;;14.03;12.00;;;4.20;99.90;;;;;;5121089;27;20465;-68
2024/01/07 10:02:41;;;;;;;16.00;13.37;;;4.30;99.90;;;;;;5139510;27;20442;-69
2024/01/07 10:05:08;;;;;;;21.13;13.03;;;4.30;99.90;;;;;;5139989;27;20503;-68
2024/01/07 10:07:35;;;;;;;17.70;13.50;;;4.40;99.90;;;;;;5139216;27;20934;-68
2024/01/07 10:10:14;;;;;;;14.47;12.50;;;4.30;99.90;;;;;;5140492;27;20485;-72
2024/01/07 10:12:41;;;;;;;16.50;13.07;;;4.30;99.90;;;;;;5139583;27;20426;-69
2024/01/07 10:15:08;;;;;;;15.13;13.43;;;4.30;99.90;;;;;;5138779;27;20441;-69
2024/01/07 10:17:38;;;;;;;14.30;12.10;;;4.30;99.90;;;;;;5120685;27;20549;-69
2024/01/07 10:20:09;;;;;;;14.43;11.80;;;4.30;99.90;;;;;;5138941;27;20873;-69
2024/01/07 10:22:37;;;;;;;13.70;12.30;;;4.30;99.90;;;;;;5139447;27;20450;-69
2024/01/07 10:25:04;;;;;;;13.87;11.90;;;4.30;99.90;;;;;;5139569;27;20460;-69
2024/01/07 10:27:34;;;;;;;17.77;12.23;;;4.30;99.90;;;;;;5138878;27;20441;-69
2024/01/07 10:30:02;;;;;;;19.70;13.20;;;4.30;99.90;;;;;;5139582;27;20469;-68
2024/01/07 10:32:30;;;;;;;15.30;11.80;;;4.30;99.90;;;;;;5139821;27;20487;-69
2024/01/07 10:35:03;;;;;;;16.43;12.77;;;4.30;99.90;;;;;;5144443;27;20445;-69
2024/01/07 10:37:30;;;;;;;19.87;13.37;;;4.40;99.90;;;;;;5150718;27;20465;-69
2024/01/07 10:40:02;;;;;;;18.30;14.27;;;4.30;99.90;;;;;;5150368;27;20478;-68
2024/01/07 10:42:31;;;;;;;16.60;12.90;;;4.30;99.90;;;;;;5147578;27;20525;-74
2024/01/07 10:44:59;;;;;;;17.17;12.90;;;4.30;99.90;;;;;;5130294;27;20446;-73
2024/01/07 10:47:32;;;;;;;18.57;13.50;;;4.30;99.90;;;;;;5129529;27;20532;-70
2024/01/07 10:50:00;;;;;;;15.30;13.63;;;4.20;99.90;;;;;;5152540;27;20465;-69
2024/01/07 10:52:28;;;;;;;18.30;14.17;;;4.30;99.90;;;;;;5130235;27;20450;-72
2024/01/07 10:54:59;;;;;;;16.37;12.50;;;4.30;99.90;;;;;;5147584;27;20442;-70
2024/01/07 10:57:33;;;;;;;17.50;13.20;;;4.30;99.90;;;;;;5146933;27;20858;-70
2024/01/07 11:00:06;;;;;;;17.07;14.40;;;4.30;99.90;;;;;;5144262;27;20461;-70
2024/01/07 11:02:36;;;;;;;15.90;13.10;;;4.30;99.90;;;;;;5144422;27;20494;-70
2024/01/07 11:05:13;;;;;;;14.83;12.57;;;4.30;99.90;;;;;;5125641;27;20491;-69
2024/01/07 11:07:45;;;;;;;15.90;12.10;;;4.40;99.90;;;;;;5125717;27;20457;-70
2024/01/07 11:10:18;;;;;;;16.73;14.43;;;4.40;99.90;;;;;;5142056;27;20454;-70
2024/01/07 11:12:54;;;;;;;16.03;12.83;;;4.50;99.90;;;;;;5142686;27;20430;-70
2024/01/07 11:15:57;;;;;;;14.43;11.77;;;4.60;99.90;;;;;;5141265;27;20437;-70
2024/01/07 11:18:29;;;;;;;13.23;11.90;;;4.60;99.90;;;;;;5142546;27;20465;-70
2024/01/07 11:21:00;;;;;;;16.43;12.17;;;4.50;99.90;;;;;;5140866;27;20506;-70
2024/01/07 11:23:29;;;;;;;15.47;12.43;;;4.50;99.90;;;;;;5141262;27;20437;-69
2024/01/07 11:25:58;;;;;;;15.03;12.17;;;4.60;99.90;;;;;;5141539;27;20449;-69
2024/01/07 11:28:46;;;;;;;12.90;11.20;;;4.60;99.90;;;;;;5140914;27;20471;-69
2024/01/07 11:31:16;;;;;;;13.60;12.20;;;4.60;99.90;;;;;;5141973;27;20458;-70
2024/01/07 11:33:50;;;;;;;13.37;11.90;;;4.60;99.90;;;;;;5110499;22;20485;-63
2024/01/07 11:36:18;;;;;;;15.83;11.60;;;4.60;99.90;;;;;;5078405;28;20555;-64
2024/01/07 11:38:45;;;;;;;14.83;11.67;;;4.70;99.90;;;;;;5073949;28;21018;-63
2024/01/07 11:41:17;;;;;;;12.70;11.33;;;4.70;99.90;;;;;;5074315;28;20444;-63
2024/01/07 11:43:54;;;;;;;14.10;11.67;;;4.60;99.90;;;;;;5074113;28;20444;-63
2024/01/07 11:46:23;;;;;;;11.70;9.43;;;4.50;99.90;;;;;;5074262;28;20472;-63
2024/01/07 11:48:53;;;;;;;12.50;11.20;;;4.60;99.90;;;;;;5073684;28;20465;-63
2024/01/07 11:51:20;;;;;;;14.17;12.07;;;4.50;99.90;;;;;;5074117;28;20437;-63
2024/01/07 11:53:48;;;;;;;13.67;11.53;;;4.50;99.90;;;;;;5073977;28;20447;-63
2024/01/07 11:56:14;;;;;;;15.13;12.30;;;4.50;99.90;;;;;;5073968;28;20448;-63
2024/01/07 11:58:41;;;;;;;17.23;12.70;;;4.50;99.90;;;;;;5073824;28;20487;-63
2024/01/07 12:01:08;;;;;;;17.53;12.23;;;4.40;99.90;;;;;;5073890;28;20489;-62
2024/01/07 12:03:36;;;;;;;17.57;12.70;;;4.50;99.90;;;;;;5073990;28;20448;-63
2024/01/07 12:06:03;;;;;;;11.30;9.00;;;4.50;99.90;;;;;;5073801;28;20483;-63
2024/01/07 12:08:30;;;;;;;15.73;9.87;;;4.50;99.90;;;;;;5073439;28;20460;-63
2024/01/07 12:10:57;;;;;;;15.63;12.23;;;4.50;99.90;;;;;;5073281;28;20440;-64
2024/01/07 12:13:25;;;;;;;15.73;12.80;;;4.40;99.90;;;;;;5073739;28;20448;-63
2024/01/07 12:15:52;;;;;;;17.23;12.83;;;4.50;99.90;;;;;;5073311;28;20447;-63
2024/01/07 12:18:18;;;;;;;13.93;12.07;;;4.50;99.90;;;;;;5073110;28;20994;-62
2024/01/07 12:20:57;;;;;;;18.70;12.03;;;4.50;99.90;;;;;;5073641;28;20440;-63
2024/01/07 12:23:24;;;;;;;15.07;11.13;;;4.40;99.90;;;;;;5073559;28;20432;-63
2024/01/07 12:25:51;;;;;;;14.00;11.30;;;4.40;99.90;;;;;;5073495;28;20448;-63
2024/01/07 12:28:19;;;;;;;13.00;11.60;;;4.40;99.90;;;;;;5073342;28;20460;-63
2024/01/07 12:30:46;;;;;;;17.30;12.93;;;4.50;99.90;;;;;;5073573;28;20440;-63
2024/01/07 12:33:12;;;;;;;14.27;12.40;;;4.50;99.90;;;;;;5074090;28;20455;-62
2024/01/07 12:35:40;;;;;;;16.03;12.23;;;4.50;99.90;;;;;;5073694;28;20459;-62
2024/01/07 12:38:08;;;;;;;16.50;13.80;;;4.50;99.90;;;;;;5073727;28;20488;-62
2024/01/07 12:40:35;;;;;;;14.17;12.67;;;4.50;99.90;;;;;;5073737;28;20916;-63